createdAt,value
2018-10-06T00:00:35.238Z,14.40
2018-10-06T00:03:09.527Z,14.20
2018-10-06T00:05:43.757Z,14.20
2018-10-06T00:08:19.313Z,14.10
2018-10-06T00:10:53.649Z,14.10
2018-10-06T00:13:27.854Z,14.00
2018-10-06T00:16:02.055Z,13.90
2018-10-06T00:18:36.354Z,13.80
2018-10-06T00:21:10.547Z,13.80
2018-10-06T00:23:44.771Z,13.80
2018-10-06T00:26:19.199Z,13.80
2018-10-06T00:28:53.383Z,13.70
2018-10-06T00:31:27.615Z,13.80
2018-10-06T00:34:02.226Z,13.90
2018-10-06T00:36:36.568Z,13.80
2018-10-06T00:39:10.922Z,13.70
2018-10-06T00:41:45.174Z,13.60
2018-10-06T00:44:19.642Z,13.50
2018-10-06T00:46:54.023Z,13.40
2018-10-06T00:49:28.223Z,13.40
2018-10-06T00:52:02.564Z,13.40
2018-10-06T00:54:36.890Z,13.30
2018-10-06T00:57:11.198Z,13.30
2018-10-06T00:59:45.475Z,13.20
2018-10-06T01:02:19.787Z,13.20
2018-10-06T01:04:54.034Z,13.10
2018-10-06T01:07:28.236Z,13.10
2018-10-06T01:10:02.595Z,13.00
2018-10-06T01:12:36.825Z,13.00
2018-10-06T01:15:11.045Z,12.80
2018-10-06T01:17:45.303Z,12.80
2018-10-06T01:20:19.554Z,12.80
2018-10-06T01:22:53.878Z,12.80
2018-10-06T01:25:28.187Z,12.80
2018-10-06T01:28:02.736Z,12.70
2018-10-06T01:30:36.926Z,12.70
2018-10-06T01:33:11.218Z,12.80
2018-10-06T01:35:45.619Z,12.90
2018-10-06T01:38:19.930Z,12.90
2018-10-06T01:40:54.239Z,12.90
2018-10-06T01:43:28.634Z,12.90
2018-10-06T01:46:02.966Z,12.80
2018-10-06T01:48:37.482Z,12.80
2018-10-06T01:51:11.846Z,12.80
2018-10-06T01:53:46.129Z,12.80
2018-10-06T01:56:20.330Z,12.70
2018-10-06T01:58:54.590Z,12.70
2018-10-06T02:01:28.921Z,12.60
2018-10-06T02:04:03.095Z,12.60
2018-10-06T02:06:37.504Z,12.60
2018-10-06T02:09:11.775Z,12.60
2018-10-06T02:11:46.127Z,12.50
2018-10-06T02:14:20.555Z,12.50
2018-10-06T02:16:54.714Z,12.50
2018-10-06T02:19:29.038Z,12.40
2018-10-06T02:22:03.324Z,12.40
2018-10-06T02:24:37.570Z,12.40
2018-10-06T02:27:11.882Z,12.40
2018-10-06T02:29:46.311Z,12.40
2018-10-06T02:32:20.660Z,12.30
2018-10-06T02:34:54.914Z,12.30
2018-10-06T02:37:29.481Z,12.30
2018-10-06T02:40:03.718Z,12.30
2018-10-06T02:42:38.358Z,12.30
2018-10-06T02:45:12.742Z,12.30
2018-10-06T02:47:47.038Z,12.30
2018-10-06T02:50:21.329Z,12.30
2018-10-06T02:52:55.652Z,12.30
2018-10-06T02:55:29.958Z,12.30
2018-10-06T02:58:04.210Z,12.30
2018-10-06T03:00:38.698Z,12.40
2018-10-06T03:03:13.066Z,12.40
2018-10-06T03:05:47.423Z,12.30
2018-10-06T03:08:21.746Z,12.30
2018-10-06T03:10:56.030Z,12.20
2018-10-06T03:13:30.284Z,12.20
2018-10-06T03:16:04.666Z,12.20
2018-10-06T03:18:38.834Z,12.20
2018-10-06T03:21:13.151Z,12.20
2018-10-06T03:23:47.547Z,12.20
2018-10-06T03:26:21.984Z,12.20
2018-10-06T03:28:56.246Z,12.30
2018-10-06T03:31:30.591Z,12.30
2018-10-06T03:34:04.859Z,12.30
2018-10-06T03:36:39.154Z,12.30
2018-10-06T03:39:13.319Z,12.40
2018-10-06T03:41:47.598Z,12.40
2018-10-06T03:44:21.999Z,12.30
2018-10-06T03:46:56.307Z,12.30
2018-10-06T03:49:30.587Z,12.20
2018-10-06T03:52:04.938Z,12.20
2018-10-06T03:54:39.367Z,12.20
2018-10-06T03:57:13.751Z,12.20
2018-10-06T03:59:48.054Z,12.20
2018-10-06T04:02:22.310Z,12.20
2018-10-06T04:04:56.630Z,12.20
2018-10-06T04:07:30.966Z,12.10
2018-10-06T04:10:05.383Z,12.00
2018-10-06T04:12:39.555Z,12.00
2018-10-06T04:15:13.867Z,12.00
2018-10-06T04:17:48.441Z,12.10
2018-10-06T04:20:22.834Z,12.10
2018-10-06T04:22:57.067Z,12.20
2018-10-06T04:25:31.334Z,12.30
2018-10-06T04:28:05.647Z,12.30
2018-10-06T04:30:39.946Z,12.30
2018-10-06T04:33:14.279Z,12.30
2018-10-06T04:35:48.607Z,12.40
2018-10-06T04:38:22.818Z,12.60
2018-10-06T04:40:57.230Z,12.50
2018-10-06T04:43:31.397Z,12.40
2018-10-06T04:46:05.622Z,12.40
2018-10-06T04:48:39.879Z,12.40
2018-10-06T04:51:14.107Z,12.50
2018-10-06T04:53:48.496Z,12.30
2018-10-06T04:56:22.782Z,12.30
2018-10-06T04:58:57.091Z,12.30
2018-10-06T05:01:31.275Z,12.30
2018-10-06T05:04:05.507Z,12.20
2018-10-06T05:06:39.798Z,12.20
2018-10-06T05:09:14.130Z,12.20
2018-10-06T05:11:48.379Z,12.20
2018-10-06T05:14:22.757Z,12.10
2018-10-06T05:16:57.207Z,12.10
2018-10-06T05:19:31.474Z,12.10
2018-10-06T05:22:05.650Z,12.00
2018-10-06T05:24:40.087Z,12.00
2018-10-06T05:27:14.303Z,11.90
2018-10-06T05:29:48.699Z,11.90
2018-10-06T05:32:22.871Z,11.90
2018-10-06T05:34:57.190Z,11.80
2018-10-06T05:37:31.434Z,11.80
2018-10-06T05:40:05.858Z,11.70
2018-10-06T05:42:40.158Z,11.70
2018-10-06T05:45:14.530Z,11.60
2018-10-06T05:47:48.775Z,11.70
2018-10-06T05:50:23.087Z,11.60
2018-10-06T05:52:57.415Z,11.70
2018-10-06T05:55:31.708Z,11.70
2018-10-06T05:58:06.166Z,11.70
2018-10-06T06:00:40.387Z,11.60
2018-10-06T06:03:14.750Z,11.60
2018-10-06T06:05:49.026Z,11.60
2018-10-06T06:08:23.310Z,11.70
2018-10-06T06:10:57.619Z,11.60
2018-10-06T06:13:32.023Z,11.60
2018-10-06T06:16:06.340Z,11.70
2018-10-06T06:18:40.674Z,11.60
2018-10-06T06:21:14.955Z,11.60
2018-10-06T06:23:49.296Z,11.70
2018-10-06T06:26:23.675Z,11.70
2018-10-06T06:28:57.885Z,11.70
2018-10-06T06:31:32.227Z,11.80
2018-10-06T06:34:06.540Z,11.80
2018-10-06T06:36:40.826Z,11.80
2018-10-06T06:39:15.235Z,11.80
2018-10-06T06:41:49.502Z,11.90
2018-10-06T06:44:23.830Z,12.00
2018-10-06T06:46:57.886Z,12.10
2018-10-06T06:49:32.222Z,12.20
2018-10-06T06:52:06.704Z,12.30
2018-10-06T06:54:41.064Z,12.40
2018-10-06T06:57:15.438Z,12.60
2018-10-06T06:59:49.869Z,12.70
2018-10-06T07:02:24.015Z,12.70
2018-10-06T07:04:58.443Z,12.80
2018-10-06T07:07:32.718Z,12.90
2018-10-06T07:10:07.055Z,13.00
2018-10-06T07:12:41.450Z,13.10
2018-10-06T07:15:15.866Z,13.20
2018-10-06T07:17:50.167Z,13.40
2018-10-06T07:20:24.570Z,13.50
2018-10-06T07:22:58.967Z,13.60
2018-10-06T07:25:33.335Z,13.70
2018-10-06T07:28:07.650Z,13.80
2018-10-06T07:30:41.926Z,13.90
2018-10-06T07:33:16.102Z,14.00
2018-10-06T07:35:50.525Z,14.10
2018-10-06T07:38:24.663Z,14.20
2018-10-06T07:40:59.079Z,14.30
2018-10-06T07:43:33.478Z,14.40
2018-10-06T07:46:08.211Z,14.50
2018-10-06T07:48:42.468Z,14.60
2018-10-06T07:51:16.819Z,14.70
2018-10-06T07:53:51.018Z,14.90
2018-10-06T07:56:25.368Z,14.90
2018-10-06T07:58:59.558Z,15.00
2018-10-06T08:01:34.022Z,15.10
2018-10-06T08:04:08.363Z,15.20
2018-10-06T08:06:42.749Z,15.30
2018-10-06T08:09:17.102Z,15.40
2018-10-06T08:11:51.281Z,15.50
2018-10-06T08:14:25.554Z,15.70
2018-10-06T08:16:59.861Z,15.70
2018-10-06T08:19:34.303Z,15.90
2018-10-06T08:22:08.815Z,15.90
2018-10-06T08:24:43.103Z,16.00
2018-10-06T08:27:17.507Z,16.10
2018-10-06T08:29:51.798Z,16.10
2018-10-06T08:32:26.131Z,16.20
2018-10-06T08:35:00.600Z,16.30
2018-10-06T08:37:34.914Z,16.40
2018-10-06T08:40:09.312Z,16.50
2018-10-06T08:42:43.683Z,16.60
2018-10-06T08:45:18.072Z,16.70
2018-10-06T08:47:52.355Z,16.80
2018-10-06T08:50:26.781Z,16.90
2018-10-06T08:53:01.002Z,16.90
2018-10-06T08:55:35.398Z,17.00
2018-10-06T08:58:09.598Z,17.10
2018-10-06T09:00:43.831Z,17.20
2018-10-06T09:03:17.982Z,17.30
2018-10-06T09:05:52.238Z,17.40
2018-10-06T09:08:26.571Z,17.40
2018-10-06T09:11:01.073Z,17.50
2018-10-06T09:13:35.321Z,17.60
2018-10-06T09:16:09.679Z,17.70
2018-10-06T09:18:44.118Z,17.70
2018-10-06T09:21:18.407Z,17.80
2018-10-06T09:23:52.682Z,17.80
2018-10-06T09:26:27.175Z,17.90
2018-10-06T09:29:01.562Z,18.10
2018-10-06T09:31:35.934Z,18.30
2018-10-06T09:34:10.250Z,18.40
2018-10-06T09:36:44.519Z,18.40
2018-10-06T09:39:18.839Z,18.50
2018-10-06T09:41:53.353Z,18.50
2018-10-06T09:44:27.514Z,18.70
2018-10-06T09:47:01.870Z,18.80
2018-10-06T09:49:36.022Z,18.90
2018-10-06T09:52:10.431Z,19.00
2018-10-06T09:54:44.779Z,19.10
2018-10-06T09:57:19.136Z,19.20
2018-10-06T09:59:53.575Z,19.40
2018-10-06T10:02:33.227Z,19.40
2018-10-06T10:05:12.811Z,19.50
2018-10-06T10:07:47.622Z,19.70
2018-10-06T10:10:21.951Z,19.80
2018-10-06T10:12:56.267Z,19.80
2018-10-06T10:15:30.555Z,19.80
2018-10-06T10:18:05.143Z,20.00
2018-10-06T10:20:39.427Z,20.10
2018-10-06T10:23:13.859Z,20.10
2018-10-06T10:25:48.126Z,20.20
2018-10-06T10:28:22.512Z,20.50
2018-10-06T10:30:56.789Z,20.60
2018-10-06T10:33:31.023Z,20.60
2018-10-06T10:36:05.338Z,20.70
2018-10-06T10:38:39.654Z,20.80
2018-10-06T10:41:14.034Z,20.90
2018-10-06T10:43:48.354Z,20.90
2018-10-06T10:46:22.618Z,21.00
2018-10-06T10:48:56.840Z,21.10
2018-10-06T10:51:31.039Z,21.20
2018-10-06T10:54:05.271Z,21.30
2018-10-06T10:56:39.596Z,21.30
2018-10-06T10:59:13.775Z,21.50
2018-10-06T11:01:48.106Z,21.50
2018-10-06T11:04:22.309Z,21.50
2018-10-06T11:06:56.660Z,21.60
2018-10-06T11:09:31.078Z,21.60
2018-10-06T11:12:05.394Z,21.70
2018-10-06T11:14:39.610Z,21.80
2018-10-06T11:17:13.962Z,22.00
2018-10-06T11:19:48.307Z,21.90
2018-10-06T11:22:22.807Z,22.00
2018-10-06T11:24:57.295Z,22.20
2018-10-06T11:27:31.694Z,22.30
2018-10-06T11:30:05.990Z,22.40
2018-10-06T11:32:40.387Z,22.30
2018-10-06T11:35:14.754Z,22.40
2018-10-06T11:37:49.257Z,22.50
2018-10-06T11:40:23.358Z,22.70
2018-10-06T11:42:57.579Z,22.80
2018-10-06T11:45:31.915Z,22.80
2018-10-06T11:48:06.111Z,22.90
2018-10-06T11:50:40.455Z,22.90
2018-10-06T11:53:14.879Z,22.90
2018-10-06T11:55:49.127Z,23.00
2018-10-06T11:58:23.487Z,23.10
2018-10-06T12:00:57.782Z,23.10
2018-10-06T12:03:32.079Z,23.30
2018-10-06T12:06:06.426Z,23.30
2018-10-06T12:08:40.658Z,23.40
2018-10-06T12:11:15.040Z,23.40
2018-10-06T12:13:49.340Z,23.50
2018-10-06T12:16:23.734Z,23.60
2018-10-06T12:18:58.052Z,23.60
2018-10-06T12:21:32.334Z,23.60
2018-10-06T12:24:06.688Z,23.60
2018-10-06T12:26:41.171Z,23.70
2018-10-06T12:29:15.439Z,23.90
2018-10-06T12:31:49.764Z,23.90
2018-10-06T12:34:24.119Z,23.90
2018-10-06T12:36:58.439Z,24.10
2018-10-06T12:39:32.742Z,24.10
2018-10-06T12:42:07.093Z,24.10
2018-10-06T12:44:41.222Z,24.10
2018-10-06T12:47:15.427Z,24.10
2018-10-06T12:49:49.634Z,24.30
2018-10-06T12:52:23.931Z,24.30
2018-10-06T12:54:58.211Z,24.30
2018-10-06T12:57:32.562Z,24.40
2018-10-06T13:00:06.871Z,24.40
2018-10-06T13:02:41.246Z,24.50
2018-10-06T13:05:15.551Z,24.50
2018-10-06T13:07:49.870Z,24.60
2018-10-06T13:10:24.170Z,24.60
2018-10-06T13:12:58.614Z,24.70
2018-10-06T13:15:32.863Z,24.80
2018-10-06T13:18:07.193Z,24.80
2018-10-06T13:20:42.524Z,24.80
2018-10-06T13:23:16.859Z,24.80
2018-10-06T13:25:51.139Z,24.90
2018-10-06T13:28:25.462Z,25.00
2018-10-06T13:30:59.657Z,25.10
2018-10-06T13:33:33.952Z,25.10
2018-10-06T13:36:08.150Z,25.20
2018-10-06T13:38:42.357Z,25.10
2018-10-06T13:41:16.530Z,25.00
2018-10-06T13:43:50.814Z,25.10
2018-10-06T13:46:25.117Z,25.10
2018-10-06T13:48:59.315Z,25.10
2018-10-06T13:51:33.570Z,25.30
2018-10-06T13:54:07.804Z,25.30
2018-10-06T13:56:42.111Z,25.30
2018-10-06T13:59:16.447Z,25.30
2018-10-06T14:01:50.663Z,25.20
2018-10-06T14:04:25.046Z,25.20
2018-10-06T14:06:59.282Z,25.20
2018-10-06T14:09:33.658Z,25.10
2018-10-06T14:12:07.982Z,25.10
2018-10-06T14:14:42.393Z,25.10
2018-10-06T14:17:16.627Z,25.10
2018-10-06T14:19:50.861Z,25.10
2018-10-06T14:22:25.185Z,25.10
2018-10-06T14:24:59.450Z,25.00
2018-10-06T14:27:33.703Z,25.00
2018-10-06T14:30:07.959Z,24.90
2018-10-06T14:32:42.355Z,24.90
2018-10-06T14:35:16.583Z,24.70
2018-10-06T14:37:50.835Z,24.60
2018-10-06T14:40:25.187Z,24.50
2018-10-06T14:42:59.602Z,24.30
2018-10-06T14:45:33.962Z,24.30
2018-10-06T14:48:08.288Z,24.30
2018-10-06T14:50:42.596Z,24.20
2018-10-06T14:53:17.003Z,24.20
2018-10-06T14:55:51.305Z,24.10
2018-10-06T14:58:25.698Z,24.00
2018-10-06T15:01:00.127Z,24.00
2018-10-06T15:03:34.470Z,24.00
2018-10-06T15:06:08.838Z,24.00
2018-10-06T15:08:43.111Z,24.00
2018-10-06T15:11:17.299Z,23.90
2018-10-06T15:13:51.600Z,23.90
2018-10-06T15:16:26.000Z,23.80
2018-10-06T15:19:00.240Z,23.80
2018-10-06T15:21:34.614Z,23.70
2018-10-06T15:24:08.743Z,23.70
2018-10-06T15:26:43.070Z,23.60
2018-10-06T15:29:17.348Z,23.60
2018-10-06T15:31:51.655Z,23.60
2018-10-06T15:34:26.234Z,23.70
2018-10-06T15:37:01.108Z,23.70
2018-10-06T15:39:35.413Z,23.90
2018-10-06T15:42:09.655Z,23.90
2018-10-06T15:44:43.886Z,24.00
2018-10-06T15:47:18.187Z,24.20
2018-10-06T15:49:52.524Z,24.10
2018-10-06T15:52:26.950Z,24.20
2018-10-06T15:55:01.182Z,24.10
2018-10-06T15:57:35.587Z,24.10
2018-10-06T16:00:09.867Z,23.90
2018-10-06T16:02:44.038Z,23.90
2018-10-06T16:05:18.450Z,23.70
2018-10-06T16:07:53.038Z,23.70
2018-10-06T16:10:27.281Z,23.70
2018-10-06T16:13:01.559Z,23.60
2018-10-06T16:15:35.862Z,23.40
2018-10-06T16:18:10.165Z,23.40
2018-10-06T16:20:44.504Z,23.30
2018-10-06T16:23:18.754Z,23.20
2018-10-06T16:25:53.149Z,23.10
2018-10-06T16:28:27.523Z,23.00
2018-10-06T16:31:01.774Z,22.90
2018-10-06T16:33:36.317Z,22.70
2018-10-06T16:36:10.494Z,22.60
2018-10-06T16:38:44.763Z,22.40
2018-10-06T16:41:19.117Z,22.30
2018-10-06T16:43:53.374Z,22.20
2018-10-06T16:46:27.838Z,22.10
2018-10-06T16:49:02.150Z,21.90
2018-10-06T16:51:36.430Z,21.80
2018-10-06T16:54:10.903Z,21.70
2018-10-06T16:56:45.250Z,21.60
2018-10-06T16:59:19.611Z,21.40
2018-10-06T17:01:53.948Z,21.40
2018-10-06T17:04:28.263Z,21.30
2018-10-06T17:07:02.494Z,21.20
2018-10-06T17:09:36.876Z,21.10
2018-10-06T17:12:11.254Z,21.10
2018-10-06T17:14:45.477Z,20.90
2018-10-06T17:17:19.815Z,20.80
2018-10-06T17:19:54.130Z,20.70
2018-10-06T17:22:28.555Z,20.60
2018-10-06T17:25:02.819Z,20.60
2018-10-06T17:27:37.063Z,20.40
2018-10-06T17:30:11.510Z,20.40
2018-10-06T17:32:45.716Z,20.20
2018-10-06T17:35:20.082Z,20.20
2018-10-06T17:37:54.278Z,20.10
2018-10-06T17:40:28.551Z,20.10
2018-10-06T17:43:03.272Z,20.00
2018-10-06T17:45:41.147Z,20.00
2018-10-06T17:48:15.471Z,20.00
2018-10-06T17:50:49.980Z,19.90
2018-10-06T17:53:24.151Z,19.80
2018-10-06T17:59:01.361Z,19.70
2018-10-06T18:01:35.486Z,19.70
2018-10-06T18:04:10.030Z,19.70
2018-10-06T18:06:44.210Z,19.60
2018-10-06T18:09:18.539Z,19.60
2018-10-06T18:11:52.725Z,19.50
2018-10-06T18:14:27.180Z,19.40
2018-10-06T18:17:01.311Z,19.40
2018-10-06T18:19:35.762Z,19.40
2018-10-06T18:22:10.150Z,19.40
2018-10-06T18:24:44.457Z,19.30
2018-10-06T18:27:18.828Z,19.30
2018-10-06T18:29:53.029Z,19.20
2018-10-06T18:32:27.303Z,19.20
2018-10-06T18:35:04.140Z,19.20
2018-10-06T18:53:20.499Z,19.20
2018-10-06T18:55:54.684Z,19.00
2018-10-06T18:58:29.078Z,18.90
2018-10-06T19:01:03.386Z,18.90
2018-10-06T19:03:37.767Z,18.90
2018-10-06T19:06:11.896Z,18.80
2018-10-06T19:08:46.123Z,18.80
2018-10-06T19:11:20.470Z,18.70
2018-10-06T19:13:54.823Z,18.70
2018-10-06T19:16:29.119Z,18.60
2018-10-06T19:19:03.455Z,18.50
2018-10-06T19:21:38.119Z,18.50
2018-10-06T19:24:12.635Z,18.50
2018-10-06T19:26:47.029Z,18.50
2018-10-06T19:29:21.334Z,18.50
2018-10-06T19:31:55.743Z,18.50
2018-10-06T19:34:30.179Z,18.60
2018-10-06T19:37:04.475Z,18.60
2018-10-06T19:39:38.768Z,18.70
2018-10-06T19:42:13.002Z,18.70
2018-10-06T19:44:47.307Z,18.70
2018-10-06T19:47:21.731Z,18.70
2018-10-06T19:49:56.038Z,18.70
2018-10-06T19:52:30.243Z,18.70
2018-10-06T19:55:04.580Z,18.80
2018-10-06T19:57:38.950Z,18.80
2018-10-06T20:00:13.302Z,18.70
2018-10-06T20:02:47.482Z,18.70
2018-10-06T20:05:21.792Z,18.60
2018-10-06T20:07:56.105Z,18.60
2018-10-06T20:10:30.392Z,18.50
2018-10-06T20:13:04.703Z,18.40
2018-10-06T20:15:38.999Z,18.40
2018-10-06T20:18:13.162Z,18.40
2018-10-06T20:20:47.363Z,18.30
2018-10-06T20:23:21.635Z,18.30
2018-10-06T20:25:55.915Z,18.20
2018-10-06T20:28:30.303Z,18.20
2018-10-06T20:31:04.583Z,18.20
2018-10-06T20:33:38.951Z,18.20
2018-10-06T20:36:13.318Z,18.10
2018-10-06T20:38:47.747Z,18.10
2018-10-06T20:41:22.083Z,18.00
2018-10-06T20:43:56.265Z,18.00
2018-10-06T20:46:30.750Z,17.90
2018-10-06T20:49:05.199Z,17.80
2018-10-06T20:51:39.410Z,17.80
2018-10-06T20:54:13.639Z,17.70
2018-10-06T20:56:47.931Z,17.70
2018-10-06T20:59:24.070Z,17.60
2018-10-06T21:02:01.693Z,17.60
2018-10-06T21:04:36.410Z,17.50
2018-10-06T21:07:11.364Z,17.50
2018-10-06T21:09:45.651Z,17.40
2018-10-06T21:12:20.059Z,17.40
2018-10-06T21:14:54.374Z,17.30
2018-10-06T21:17:28.671Z,17.40
2018-10-06T21:20:02.984Z,17.30
2018-10-06T21:22:37.278Z,17.30
2018-10-06T21:25:11.662Z,17.20
2018-10-06T21:27:45.996Z,17.20
2018-10-06T21:30:20.230Z,17.10
2018-10-06T21:32:54.539Z,17.00
2018-10-06T21:35:29.170Z,17.00
2018-10-06T21:38:03.704Z,16.90
2018-10-06T21:40:37.927Z,16.80
2018-10-06T21:43:12.258Z,16.80
2018-10-06T21:45:46.486Z,16.80
2018-10-06T21:48:20.815Z,16.60
2018-10-06T21:50:55.154Z,16.70
2018-10-06T21:53:29.426Z,16.70
2018-10-06T21:56:03.818Z,16.60
2018-10-06T21:58:38.192Z,16.60
2018-10-06T22:01:13.745Z,16.60
2018-10-06T22:03:48.232Z,16.60
2018-10-06T22:06:22.471Z,16.60
2018-10-06T22:08:56.770Z,16.50
2018-10-06T22:11:31.019Z,16.50
2018-10-06T22:14:05.202Z,16.40
2018-10-06T22:16:39.399Z,16.50
2018-10-06T22:19:13.767Z,16.30
2018-10-06T22:21:47.972Z,16.40
2018-10-06T22:24:22.291Z,16.40
2018-10-06T22:26:56.798Z,16.40
2018-10-06T22:29:31.441Z,16.30
2018-10-06T22:32:05.800Z,16.20
2018-10-06T22:34:40.254Z,16.20
2018-10-06T22:37:14.454Z,16.20
2018-10-06T22:39:48.686Z,16.00
2018-10-06T22:42:22.890Z,16.00
2018-10-06T22:44:57.082Z,16.10
2018-10-06T22:47:31.395Z,16.10
2018-10-06T22:50:06.599Z,16.20
2018-10-06T22:52:40.837Z,16.30
2018-10-06T22:55:15.330Z,16.30
2018-10-06T22:57:49.562Z,16.20
2018-10-06T23:00:23.927Z,16.10
2018-10-06T23:02:58.253Z,16.10
2018-10-06T23:05:32.542Z,16.10
2018-10-06T23:08:06.987Z,16.10
2018-10-06T23:10:41.287Z,16.10
2018-10-06T23:13:15.710Z,16.10
2018-10-06T23:15:49.927Z,16.20
2018-10-06T23:18:24.270Z,16.30
2018-10-06T23:20:58.680Z,16.20
2018-10-06T23:23:32.902Z,16.30
2018-10-06T23:26:07.215Z,16.30
2018-10-06T23:28:41.439Z,16.30
2018-10-06T23:31:15.823Z,16.40
2018-10-06T23:33:50.242Z,16.40
2018-10-06T23:36:24.395Z,16.40
2018-10-06T23:38:58.728Z,16.50
2018-10-06T23:41:32.966Z,16.40
2018-10-06T23:44:07.187Z,16.50
2018-10-06T23:46:41.391Z,16.50
2018-10-06T23:49:15.758Z,16.50
2018-10-06T23:51:50.046Z,16.50
2018-10-06T23:54:24.347Z,16.50
2018-10-06T23:56:58.635Z,16.50
2018-10-06T23:59:32.935Z,16.50
